createdAt,value
2022-09-02T00:00:14.039Z,97599.16
2022-09-02T00:02:42.143Z,97600.66
2022-09-02T00:05:10.172Z,97607.28
2022-09-02T00:07:37.951Z,97612.16
2022-09-02T00:10:06.484Z,97612.69
2022-09-02T00:12:34.199Z,97603.94
2022-09-02T00:15:03.293Z,97603.66
2022-09-02T00:17:31.139Z,97599.03
2022-09-02T00:19:58.951Z,97598.81
2022-09-02T00:22:27.076Z,97592.47
2022-09-02T00:24:54.908Z,97592.19
2022-09-02T00:27:23.251Z,97588.84
2022-09-02T00:29:51.032Z,97592.16
2022-09-02T00:32:20.998Z,97592.19
2022-09-02T00:34:49.220Z,97597.25
2022-09-02T00:37:17.286Z,97597.19
2022-09-02T00:39:45.077Z,97585.97
2022-09-02T00:42:13.418Z,97588.25
2022-09-02T00:44:41.503Z,97586.28
2022-09-02T00:47:09.370Z,97586.00
2022-09-02T00:49:42.890Z,97584.97
2022-09-02T00:52:14.103Z,97596.28
2022-09-02T00:54:47.872Z,97592.56
2022-09-02T00:57:19.613Z,97591.72
2022-09-02T00:59:54.508Z,97592.41
2022-09-02T01:02:24.209Z,97593.84
2022-09-02T01:04:56.746Z,97591.22
2022-09-02T01:07:26.111Z,97587.34
2022-09-02T01:09:55.586Z,97588.63
2022-09-02T01:12:24.243Z,97590.19
2022-09-02T01:14:52.046Z,97585.63
2022-09-02T01:17:20.362Z,97595.63
2022-09-02T01:19:51.753Z,97585.53
2022-09-02T01:22:23.149Z,97590.03
2022-09-02T01:24:51.736Z,97589.41
2022-09-02T01:27:21.826Z,97589.78
2022-09-02T01:29:52.618Z,97584.03
2022-09-02T01:32:21.204Z,97589.34
2022-09-02T01:34:49.361Z,97595.88
2022-09-02T01:37:17.145Z,97596.47
2022-09-02T01:39:46.589Z,97591.34
2022-09-02T01:42:15.051Z,97589.69
2022-09-02T01:44:44.913Z,97584.88
2022-09-02T01:47:13.711Z,97586.03
2022-09-02T01:49:42.255Z,97584.44
2022-09-02T01:52:12.229Z,97587.25
2022-09-02T01:54:41.404Z,97585.81
2022-09-02T01:57:11.033Z,97581.34
2022-09-02T01:59:39.442Z,97583.25
2022-09-02T02:02:07.743Z,97582.59
2022-09-02T02:04:35.570Z,97583.50
2022-09-02T02:07:05.788Z,97581.78
2022-09-02T02:09:33.881Z,97581.94
2022-09-02T02:12:02.100Z,97580.94
2022-09-02T02:14:32.601Z,97582.03
2022-09-02T02:17:01.101Z,97580.66
2022-09-02T02:19:28.942Z,97585.88
2022-09-02T02:21:57.254Z,97580.94
2022-09-02T02:24:25.027Z,97577.50
2022-09-02T02:26:53.531Z,97577.31
2022-09-02T02:29:22.479Z,97577.16
2022-09-02T02:32:16.900Z,97579.59
2022-09-02T02:34:45.421Z,97581.94
2022-09-02T02:37:14.339Z,97572.56
2022-09-02T02:39:43.149Z,97581.25
2022-09-02T02:42:13.475Z,97579.81
2022-09-02T02:44:42.805Z,97579.03
2022-09-02T02:47:11.923Z,97576.09
2022-09-02T02:49:43.602Z,97576.88
2022-09-02T02:52:12.979Z,97574.16
2022-09-02T02:54:41.649Z,97571.16
2022-09-02T02:57:12.015Z,97569.41
2022-09-02T02:59:39.965Z,97570.25
2022-09-02T03:02:08.579Z,97571.09
2022-09-02T03:04:39.860Z,97568.56
2022-09-02T03:07:07.804Z,97563.34
2022-09-02T03:09:35.983Z,97571.72
2022-09-02T03:12:05.025Z,97561.56
2022-09-02T03:14:32.997Z,97566.50
2022-09-02T03:17:00.922Z,97559.72
2022-09-02T03:19:28.699Z,97564.34
2022-09-02T03:21:57.809Z,97559.88
2022-09-02T03:24:25.575Z,97568.03
2022-09-02T03:26:53.425Z,97559.25
2022-09-02T03:29:21.581Z,97556.84
2022-09-02T03:31:51.541Z,97556.84
2022-09-02T03:34:23.123Z,97556.31
2022-09-02T03:36:51.097Z,97547.03
2022-09-02T03:39:21.214Z,97551.94
2022-09-02T03:41:50.319Z,97555.19
2022-09-02T03:44:18.451Z,97545.41
2022-09-02T03:46:47.123Z,97548.06
2022-09-02T03:49:14.945Z,97546.25
2022-09-02T03:51:44.004Z,97549.63
2022-09-02T03:54:12.470Z,97547.38
2022-09-02T03:56:43.052Z,97551.78
2022-09-02T03:59:12.700Z,97554.94
2022-09-02T04:01:41.662Z,97550.41
2022-09-02T04:04:09.977Z,97551.13
2022-09-02T04:06:39.863Z,97548.72
2022-09-02T04:09:08.160Z,97546.66
2022-09-02T04:11:42.646Z,97547.09
2022-09-02T04:14:12.488Z,97549.44
2022-09-02T04:16:41.097Z,97553.56
2022-09-02T04:19:09.723Z,97543.91
2022-09-02T04:21:41.328Z,97541.50
2022-09-02T04:24:11.119Z,97548.31
2022-09-02T04:26:44.907Z,97549.78
2022-09-02T04:29:15.573Z,97548.31
2022-09-02T04:31:44.902Z,97546.03
2022-09-02T04:34:13.024Z,97546.66
2022-09-02T04:36:42.318Z,97547.81
2022-09-02T04:39:12.707Z,97553.78
2022-09-02T04:41:40.763Z,97547.91
2022-09-02T04:44:10.863Z,97545.22
2022-09-02T04:46:43.160Z,97552.06
2022-09-02T04:49:15.383Z,97550.81
2022-09-02T04:51:44.977Z,97563.94
2022-09-02T04:54:13.569Z,97551.94
2022-09-02T04:56:44.610Z,97546.50
2022-09-02T04:59:13.904Z,97553.09
2022-09-02T05:01:50.492Z,97563.28
2022-09-02T05:04:22.663Z,97552.78
2022-09-02T05:06:53.193Z,97553.31
2022-09-02T05:09:21.662Z,97562.94
2022-09-02T05:12:04.318Z,97561.84
2022-09-02T05:14:52.518Z,97557.09
2022-09-02T05:17:24.938Z,97560.44
2022-09-02T05:19:52.831Z,97556.88
2022-09-02T05:22:20.759Z,97561.06
2022-09-02T05:24:48.728Z,97553.16
2022-09-02T05:27:16.782Z,97560.78
2022-09-02T05:29:46.491Z,97550.97
2022-09-02T05:32:17.762Z,97551.34
2022-09-02T05:34:50.168Z,97557.00
2022-09-02T05:37:18.586Z,97557.34
2022-09-02T05:39:47.895Z,97556.75
2022-09-02T05:42:19.674Z,97553.81
2022-09-02T05:44:49.897Z,97558.00
2022-09-02T05:47:20.878Z,97554.09
2022-09-02T05:49:50.646Z,97557.44
2022-09-02T05:52:18.978Z,97560.97
2022-09-02T05:54:50.441Z,97557.03
2022-09-02T05:57:21.640Z,97552.91
2022-09-02T06:00:10.521Z,97555.91
2022-09-02T06:02:44.265Z,97561.66
2022-09-02T06:05:27.801Z,97564.38
2022-09-02T06:08:07.411Z,97551.00
2022-09-02T06:10:42.117Z,97556.63
2022-09-02T06:13:11.680Z,97554.25
2022-09-02T06:15:44.287Z,97555.16
2022-09-02T06:18:14.395Z,97556.59
2022-09-02T06:20:48.502Z,97563.47
2022-09-02T06:23:18.226Z,97557.13
2022-09-02T06:25:49.232Z,97555.63
2022-09-02T06:28:17.555Z,97560.38
2022-09-02T06:30:48.540Z,97548.81
2022-09-02T06:33:18.755Z,97548.34
2022-09-02T06:35:49.444Z,97552.09
2022-09-02T06:38:20.496Z,97552.44
2022-09-02T06:40:51.191Z,97565.03
2022-09-02T06:43:24.049Z,97555.41
2022-09-02T06:46:17.530Z,97565.03
2022-09-02T06:48:48.805Z,97557.09
2022-09-02T06:51:19.893Z,97545.84
2022-09-02T06:53:49.907Z,97557.47
2022-09-02T06:56:18.330Z,97554.16
2022-09-02T06:58:46.282Z,97553.69
2022-09-02T07:01:19.818Z,97545.75
2022-09-02T07:04:05.946Z,97533.78
2022-09-02T07:06:37.958Z,97522.06
2022-09-02T07:09:07.499Z,97517.16
2022-09-02T07:11:36.697Z,97514.72
2022-09-02T07:14:05.952Z,97509.75
2022-09-02T07:16:36.906Z,97522.97
2022-09-02T07:19:12.444Z,97514.13
2022-09-02T07:21:43.933Z,97526.75
2022-09-02T07:24:13.950Z,97533.28
2022-09-02T07:26:44.183Z,97524.66
2022-09-02T07:29:15.716Z,97534.25
2022-09-02T07:31:50.655Z,97530.88
2022-09-02T07:34:20.690Z,97532.25
2022-09-02T07:36:52.605Z,97533.50
2022-09-02T07:39:22.327Z,97529.75
2022-09-02T07:41:52.398Z,97527.41
2022-09-02T07:44:22.749Z,97516.41
2022-09-02T07:46:53.284Z,97522.28
2022-09-02T07:49:24.177Z,97522.72
2022-09-02T07:51:53.997Z,97526.19
2022-09-02T07:54:25.242Z,97507.97
2022-09-02T07:56:54.514Z,97511.69
2022-09-02T07:59:23.474Z,97514.09
2022-09-02T08:01:54.407Z,97519.91
2022-09-02T08:04:25.200Z,97512.47
2022-09-02T08:06:55.433Z,97529.16
2022-09-02T08:09:24.227Z,97531.28
2022-09-02T08:11:53.451Z,97525.59
2022-09-02T08:14:26.058Z,97532.28
2022-09-02T08:16:55.375Z,97528.75
2022-09-02T08:19:24.070Z,97521.72
2022-09-02T08:21:51.953Z,97522.44
2022-09-02T08:24:21.062Z,97519.44
2022-09-02T08:26:48.964Z,97516.25
2022-09-02T08:29:16.755Z,97513.09
2022-09-02T08:31:44.657Z,97508.88
2022-09-02T08:34:12.549Z,97510.69
2022-09-02T08:36:48.952Z,97510.09
2022-09-02T08:39:26.155Z,97519.00
2022-09-02T08:42:04.754Z,97528.13
2022-09-02T08:44:37.368Z,97512.44
2022-09-02T08:47:10.798Z,97513.91
2022-09-02T08:49:43.050Z,97512.66
2022-09-02T08:52:18.408Z,97515.31
2022-09-02T08:54:55.556Z,97506.91
2022-09-02T08:57:27.463Z,97499.59
2022-09-02T08:59:58.548Z,97500.56
2022-09-02T09:02:32.813Z,97504.25
2022-09-02T09:05:11.067Z,97509.81
2022-09-02T09:07:47.720Z,97512.31
2022-09-02T09:10:26.231Z,97507.31
2022-09-02T09:13:05.310Z,97507.34
2022-09-02T09:15:41.045Z,97501.41
2022-09-02T09:18:14.006Z,97503.56
2022-09-02T09:20:44.195Z,97497.59
2022-09-02T09:23:24.033Z,97496.78
2022-09-02T09:25:57.996Z,97495.75
2022-09-02T09:28:25.864Z,97493.44
2022-09-02T09:30:54.693Z,97504.44
2022-09-02T09:33:24.148Z,97499.09
2022-09-02T09:35:53.867Z,97490.16
2022-09-02T09:38:30.879Z,97488.97
2022-09-02T09:41:15.549Z,97487.03
2022-09-02T09:43:43.683Z,97487.53
2022-09-02T09:46:28.701Z,97481.69
2022-09-02T09:49:00.148Z,97483.94
2022-09-02T09:51:28.208Z,97481.50
2022-09-02T09:54:16.970Z,97492.38
2022-09-02T09:56:46.185Z,97490.66
2022-09-02T09:59:38.662Z,97492.59
2022-09-02T10:02:06.883Z,97488.03
2022-09-02T10:04:43.596Z,97489.94
2022-09-02T10:07:13.314Z,97489.56
2022-09-02T10:09:41.322Z,97494.56
2022-09-02T10:12:13.118Z,97487.50
2022-09-02T10:14:45.157Z,97488.50
2022-09-02T10:17:33.032Z,97498.97
2022-09-02T10:20:08.375Z,97488.13
2022-09-02T10:22:59.382Z,97482.56
2022-09-02T10:25:38.236Z,97477.88
2022-09-02T10:28:19.289Z,97483.44
2022-09-02T10:30:56.375Z,97473.13
2022-09-02T10:33:34.756Z,97480.97
2022-09-02T10:36:17.183Z,97481.41
2022-09-02T10:38:50.653Z,97484.88
2022-09-02T10:44:28.116Z,97475.75
2022-09-02T10:47:01.743Z,97475.09
2022-09-02T10:49:44.399Z,97476.16
2022-09-02T10:52:20.482Z,97479.44
2022-09-02T10:54:57.444Z,97480.16
2022-09-02T10:57:31.435Z,97477.47
2022-09-02T11:00:07.256Z,97465.59
2022-09-02T11:02:41.753Z,97466.97
2022-09-02T11:05:14.785Z,97456.88
2022-09-02T11:07:48.616Z,97455.84
2022-09-02T11:10:20.901Z,97457.94
2022-09-02T11:12:51.931Z,97454.50
2022-09-02T11:15:25.829Z,97455.00
2022-09-02T11:18:01.343Z,97465.69
2022-09-02T11:20:35.438Z,97458.97
2022-09-02T11:23:09.235Z,97453.47
2022-09-02T11:25:42.696Z,97456.81
2022-09-02T11:28:29.116Z,97452.31
2022-09-02T11:31:06.813Z,97452.81
2022-09-02T11:33:49.450Z,97444.13
2022-09-02T11:36:18.477Z,97447.75
2022-09-02T11:38:53.680Z,97445.69
2022-09-02T11:41:36.070Z,97449.44
2022-09-02T11:44:41.610Z,97439.78
2022-09-02T11:47:45.669Z,97439.63
2022-09-02T11:50:39.461Z,97443.00
2022-09-02T11:53:20.985Z,97437.78
2022-09-02T11:55:53.956Z,97456.53
2022-09-02T11:58:36.116Z,97451.97
2022-09-02T12:01:17.901Z,97446.84
2022-09-02T12:04:48.138Z,97446.28
2022-09-02T12:07:20.755Z,97456.72
2022-09-02T12:09:56.022Z,97450.03
2022-09-02T12:12:58.435Z,97452.91
2022-09-02T12:15:26.327Z,97442.41
2022-09-02T12:18:28.745Z,97445.25
2022-09-02T12:21:18.337Z,97440.44
2022-09-02T12:24:12.350Z,97434.94
2022-09-02T12:27:20.094Z,97431.00
2022-09-02T12:29:48.022Z,97426.84
2022-09-02T12:33:05.061Z,97429.38
2022-09-02T12:35:50.204Z,97431.34
2022-09-02T12:38:47.096Z,97425.22
2022-09-02T12:41:22.531Z,97423.06
2022-09-02T12:43:57.925Z,97422.31
2022-09-02T12:46:38.890Z,97425.22
2022-09-02T12:49:14.745Z,97419.22
2022-09-02T12:51:53.833Z,97413.69
2022-09-02T12:54:31.469Z,97410.16
2022-09-02T12:56:59.944Z,97406.22
2022-09-02T12:59:31.586Z,97403.69
2022-09-02T13:02:16.950Z,97408.06
2022-09-02T13:04:53.496Z,97389.78
2022-09-02T13:07:59.691Z,97395.53
2022-09-02T13:11:03.991Z,97393.91
2022-09-02T13:13:54.798Z,97397.44
2022-09-02T13:16:38.385Z,97393.72
2022-09-02T13:19:36.311Z,97387.53
2022-09-02T13:22:31.158Z,97390.03
2022-09-02T13:25:20.066Z,97399.47
2022-09-02T13:28:18.264Z,97395.09
2022-09-02T13:31:04.481Z,97393.28
2022-09-02T13:33:32.618Z,97379.56
2022-09-02T13:36:00.792Z,97393.06
2022-09-02T13:38:30.876Z,97380.09
2022-09-02T13:40:59.402Z,97385.31
2022-09-02T13:43:28.336Z,97381.69
2022-09-02T13:46:02.199Z,97373.38
2022-09-02T13:48:32.890Z,97375.09
2022-09-02T13:51:13.994Z,97379.75
2022-09-02T13:53:59.132Z,97384.66
2022-09-02T13:56:32.624Z,97380.16
2022-09-02T13:59:00.471Z,97379.50
2022-09-02T14:01:33.014Z,97374.91
2022-09-02T14:06:41.752Z,97361.44
2022-09-02T14:09:20.356Z,97362.59
2022-09-02T14:11:49.594Z,97356.66
2022-09-02T14:14:25.338Z,97358.41
2022-09-02T14:17:21.317Z,97356.72
2022-09-02T14:19:49.745Z,97350.84
2022-09-02T14:22:27.441Z,97353.88
2022-09-02T14:24:55.718Z,97361.75
2022-09-02T14:27:25.381Z,97351.56
2022-09-02T14:29:57.381Z,97343.19
2022-09-02T14:32:28.034Z,97339.88
2022-09-02T14:35:20.773Z,97347.50
2022-09-02T14:37:53.147Z,97345.75
2022-09-02T14:40:33.041Z,97337.19
2022-09-02T14:43:01.720Z,97352.06
2022-09-02T14:45:31.341Z,97353.00
2022-09-02T14:48:03.995Z,97340.25
2022-09-02T14:50:36.539Z,97336.31
2022-09-02T14:53:06.997Z,97348.47
2022-09-02T14:55:48.141Z,97341.84
2022-09-02T14:58:17.197Z,97338.81
2022-09-02T15:00:47.478Z,97332.00
2022-09-02T15:03:17.398Z,97345.03
2022-09-02T15:05:45.817Z,97332.59
2022-09-02T15:08:14.910Z,97339.44
2022-09-02T15:10:44.920Z,97337.88
2022-09-02T15:13:15.822Z,97332.28
2022-09-02T15:15:43.684Z,97336.81
2022-09-02T15:18:14.042Z,97342.19
2022-09-02T15:20:43.167Z,97340.03
2022-09-02T15:23:11.079Z,97349.31
2022-09-02T15:25:39.038Z,97347.75
2022-09-02T15:28:06.866Z,97349.03
2022-09-02T15:30:35.663Z,97349.16
2022-09-02T15:33:05.258Z,97345.16
2022-09-02T15:35:34.421Z,97351.31
2022-09-02T15:38:04.134Z,97344.91
2022-09-02T15:40:32.877Z,97342.38
2022-09-02T15:43:01.114Z,97342.72
2022-09-02T15:45:29.255Z,97341.59
2022-09-02T15:47:59.602Z,97345.59
2022-09-02T15:50:28.291Z,97342.69
2022-09-02T15:52:56.389Z,97341.84
2022-09-02T15:55:29.459Z,97345.50
2022-09-02T15:57:57.567Z,97350.44
2022-09-02T16:00:27.630Z,97352.13
2022-09-02T16:02:57.007Z,97350.66
2022-09-02T16:05:25.363Z,97342.47
2022-09-02T16:07:58.197Z,97338.53
2022-09-02T16:10:32.457Z,97341.44
2022-09-02T16:13:03.771Z,97345.13
2022-09-02T16:15:39.659Z,97345.06
2022-09-02T16:18:07.652Z,97343.59
2022-09-02T16:20:37.692Z,97349.84
2022-09-02T16:23:06.564Z,97342.22
2022-09-02T16:25:36.463Z,97335.75
2022-09-02T16:28:04.676Z,97337.16
2022-09-02T16:30:32.700Z,97328.78
2022-09-02T16:33:00.737Z,97322.69
2022-09-02T16:35:29.504Z,97323.47
2022-09-02T16:37:57.937Z,97324.84
2022-09-02T16:40:25.833Z,97323.31
2022-09-02T16:42:54.968Z,97319.38
2022-09-02T16:45:24.033Z,97321.47
2022-09-02T16:47:51.966Z,97313.63
2022-09-02T16:50:19.940Z,97323.03
2022-09-02T16:52:47.741Z,97322.31
2022-09-02T16:55:18.664Z,97320.66
2022-09-02T16:57:46.646Z,97320.41
2022-09-02T17:00:17.558Z,97309.84
2022-09-02T17:02:45.624Z,97317.16
2022-09-02T17:05:17.297Z,97316.91
2022-09-02T17:07:45.387Z,97309.34
2022-09-02T17:10:13.645Z,97321.03
2022-09-02T17:12:43.184Z,97310.91
2022-09-02T17:15:11.542Z,97315.06
2022-09-02T17:17:42.364Z,97310.88
2022-09-02T17:20:13.119Z,97315.59
2022-09-02T17:22:41.753Z,97312.63
2022-09-02T17:25:10.060Z,97316.09
2022-09-02T17:27:38.465Z,97310.16
2022-09-02T17:30:07.778Z,97309.69
2022-09-02T17:32:35.937Z,97316.19
2022-09-02T17:35:05.972Z,97316.78
2022-09-02T17:37:37.396Z,97308.59
2022-09-02T17:40:07.200Z,97311.97
2022-09-02T17:42:34.574Z,97323.44
2022-09-02T17:45:02.468Z,97320.50
2022-09-02T17:47:31.726Z,97316.22
2022-09-02T17:50:00.572Z,97321.94
2022-09-02T17:52:29.832Z,97328.03
2022-09-02T17:54:57.704Z,97328.59
2022-09-02T17:57:42.375Z,97322.03
2022-09-02T18:00:12.823Z,97323.34
2022-09-02T18:03:24.282Z,97321.72
2022-09-02T18:06:00.830Z,97328.16
2022-09-02T18:08:36.241Z,97334.13
2022-09-02T18:11:07.471Z,97332.47
2022-09-02T18:13:47.705Z,97335.28
2022-09-02T18:16:32.376Z,97332.59
2022-09-02T18:19:13.171Z,97338.50
2022-09-02T18:22:05.108Z,97339.94
2022-09-02T18:25:00.317Z,97338.09
2022-09-02T18:27:41.450Z,97343.72
2022-09-02T18:30:10.870Z,97349.03
2022-09-02T18:33:13.341Z,97349.72
2022-09-02T18:35:49.586Z,97358.09
2022-09-02T18:38:28.226Z,97354.59
2022-09-02T18:41:16.909Z,97359.78
2022-09-02T18:44:00.874Z,97359.09
2022-09-02T18:46:35.295Z,97358.88
2022-09-02T18:49:05.552Z,97355.44
2022-09-02T18:51:39.945Z,97364.78
2022-09-02T18:54:15.346Z,97356.28
2022-09-02T18:56:50.692Z,97365.44
2022-09-02T18:59:28.498Z,97356.72
2022-09-02T19:02:01.962Z,97363.22
2022-09-02T19:04:34.759Z,97361.19
2022-09-02T19:07:17.586Z,97363.06
2022-09-02T19:09:46.306Z,97363.19
2022-09-02T19:12:16.761Z,97355.72
2022-09-02T19:14:45.019Z,97360.72
2022-09-02T19:17:14.649Z,97354.63
2022-09-02T19:19:42.649Z,97356.91
2022-09-02T19:22:12.120Z,97356.75
2022-09-02T19:24:45.245Z,97350.72
2022-09-02T19:27:16.716Z,97358.09
2022-09-02T19:29:51.328Z,97349.19
2022-09-02T19:32:24.752Z,97350.91
2022-09-02T19:34:52.750Z,97351.66
2022-09-02T19:37:23.683Z,97348.72
2022-09-02T19:39:54.486Z,97354.78
2022-09-02T19:42:29.958Z,97350.72
2022-09-02T19:44:58.382Z,97353.00
2022-09-02T19:50:14.309Z,97359.03
2022-09-02T19:52:44.059Z,97353.50
2022-09-02T19:55:14.882Z,97348.69
2022-09-02T19:57:44.637Z,97353.50
2022-09-02T20:00:13.854Z,97351.16
2022-09-02T20:02:42.057Z,97360.47
2022-09-02T20:05:11.827Z,97357.22
2022-09-02T20:07:40.284Z,97352.13
2022-09-02T20:10:09.608Z,97350.53
2022-09-02T20:12:37.872Z,97354.41
2022-09-02T20:15:07.926Z,97352.47
2022-09-02T20:17:35.898Z,97349.34
2022-09-02T20:20:09.855Z,97352.19
2022-09-02T20:22:37.659Z,97349.44
2022-09-02T20:25:06.068Z,97358.38
2022-09-02T20:27:45.359Z,97359.28
2022-09-02T20:30:16.104Z,97368.13
2022-09-02T20:32:51.610Z,97361.50
2022-09-02T20:35:45.860Z,97357.13
2022-09-02T20:38:28.886Z,97360.50
2022-09-02T20:41:02.422Z,97359.97
2022-09-02T20:43:56.739Z,97352.56
2022-09-02T20:46:35.446Z,97351.81
2022-09-02T20:49:18.245Z,97353.25
2022-09-02T20:51:54.959Z,97344.63
2022-09-02T20:54:36.379Z,97352.13
2022-09-02T20:57:17.751Z,97359.53
2022-09-02T20:59:57.115Z,97354.28
2022-09-02T21:02:29.177Z,97354.09
2022-09-02T21:05:02.419Z,97357.81
2022-09-02T21:07:35.593Z,97353.44
2022-09-02T21:10:09.337Z,97356.25
2022-09-02T21:12:43.079Z,97362.09
2022-09-02T21:15:25.298Z,97360.53
2022-09-02T21:17:59.860Z,97357.63
2022-09-02T21:20:39.193Z,97362.91
2022-09-02T21:23:12.488Z,97367.00
2022-09-02T21:25:50.604Z,97368.91
2022-09-02T21:28:22.674Z,97357.50
2022-09-02T21:30:56.020Z,97369.19
2022-09-02T21:33:29.094Z,97371.72
2022-09-02T21:36:00.167Z,97371.81
2022-09-02T21:38:35.870Z,97375.91
2022-09-02T21:41:22.403Z,97372.34
2022-09-02T21:43:59.992Z,97374.97
2022-09-02T21:46:37.057Z,97377.31
2022-09-02T21:49:14.682Z,97372.34
2022-09-02T21:51:48.514Z,97368.88
2022-09-02T21:54:42.179Z,97370.56
2022-09-02T21:57:24.592Z,97373.91
2022-09-02T22:00:01.325Z,97370.66
2022-09-02T22:02:40.036Z,97373.34
2022-09-02T22:05:21.027Z,97370.66
2022-09-02T22:07:55.532Z,97376.34
2022-09-02T22:10:30.682Z,97374.13
2022-09-02T22:13:01.242Z,97377.34
2022-09-02T22:15:43.414Z,97377.06
2022-09-02T22:18:22.043Z,97378.59
2022-09-02T22:20:56.972Z,97371.34
2022-09-02T22:23:26.532Z,97377.13
2022-09-02T22:25:56.567Z,97374.28
2022-09-02T22:28:32.561Z,97371.34
2022-09-02T22:31:05.719Z,97367.81
2022-09-02T22:33:40.444Z,97369.34
2022-09-02T22:36:26.550Z,97359.72
2022-09-02T22:38:56.975Z,97367.09
2022-09-02T22:41:29.948Z,97352.34
2022-09-02T22:44:04.538Z,97360.81
2022-09-02T22:47:03.939Z,97352.88
2022-09-02T22:49:56.160Z,97357.34
2022-09-02T22:52:49.081Z,97350.91
2022-09-02T22:55:24.056Z,97344.25
2022-09-02T22:58:08.546Z,97348.28
2022-09-02T23:00:46.840Z,97349.88
2022-09-02T23:03:20.222Z,97347.25
2022-09-02T23:06:01.131Z,97339.16
2022-09-02T23:08:31.643Z,97337.63
2022-09-02T23:11:06.675Z,97339.25
2022-09-02T23:13:48.544Z,97340.47
2022-09-02T23:16:26.075Z,97341.88
2022-09-02T23:19:04.764Z,97341.06
2022-09-02T23:21:41.575Z,97334.59
2022-09-02T23:24:19.925Z,97328.88
2022-09-02T23:26:58.003Z,97323.06
2022-09-02T23:29:27.094Z,97321.91
2022-09-02T23:32:20.830Z,97319.94
2022-09-02T23:35:16.117Z,97318.91
2022-09-02T23:38:00.116Z,97324.53
2022-09-02T23:40:34.628Z,97317.56
2022-09-02T23:43:03.136Z,97318.91
2022-09-02T23:45:32.884Z,97323.03
2022-09-02T23:48:24.968Z,97320.19
2022-09-02T23:51:10.478Z,97316.97
2022-09-02T23:53:48.249Z,97315.34
2022-09-02T23:56:32.652Z,97315.44
2022-09-02T23:59:22.992Z,97308.22
